Flight Track Log - Related Links

Times and Time Zones

All times are in EDT time to prevent confusion due to time zone crossing. See the SWA3245 flight status page for this flight to view local times or setup timezone preferences in your user account.


Time Position Orientation Groundspeed Altitude Reporting Facility
EDT Latitude Longitude Course Direction KTS MPH feet Rate Location/Type
Mon 07:13:41 PM 30.4272 -81.6231 135° Southeast 240 276 2,900  Level Jacksonville Center
Mon 07:14:02 PM 30.4083 -81.6039 139° Southeast 240 276 2,900 800 Level Jacksonville Center
Mon 07:14:41 PM 30.3828 -81.5658 128° Southeast 253 291 3,700 1,300 Climbing Jacksonville Center
Mon 07:15:02 PM 30.3700 -81.5419 122° Southeast 217 250 4,200 1,672 Climbing Jacksonville Center
Mon 07:15:42 PM 30.3467 -81.5014 124° Southeast 228 262 5,400 1,700 Climbing Jacksonville Center
Mon 07:16:02 PM 30.3297 -81.4822 136° Southeast 257 296 5,900 2,700 Climbing Jacksonville Center
Mon 07:17:02 PM 30.2747 -81.4181 135° Southeast 268 308 9,000 2,750 Climbing Jacksonville Center
Mon 07:18:02 PM 30.2133 -81.3567 139° Southeast 279 321 11,400 2,550 Climbing Jacksonville Center
Mon 07:19:02 PM 30.1417 -81.2881 140° Southeast 311 358 14,100 2,550 Climbing Jacksonville Center
Mon 07:20:02 PM 30.0656 -81.2150 140° Southeast 336 387 16,500 2,450 Climbing Jacksonville Center
Mon 07:21:02 PM 29.9894 -81.1394 139° Southeast 356 410 19,000 2,150 Climbing Jacksonville Center
Mon 07:22:02 PM 29.9089 -81.0619 140° Southeast 366 421 20,800 1,750 Climbing Jacksonville Center
Mon 07:23:02 PM 29.8200 -80.9822 142° Southeast 388 447 22,500 1,750 Climbing Jacksonville Center
Mon 07:24:02 PM 29.7208 -80.9147 149° Southeast 400 460 24,300 1,850 Climbing Jacksonville Center
Mon 07:25:02 PM 29.6219 -80.8547 152° Southeast 405 466 26,200 1,517 Climbing Jacksonville Center
Mon 07:27:00 PM 29.4236 -80.7772 161° South 397 457 28,800 1,286 Climbing Miami Center
Mon 07:29:00 PM 29.2014 -80.6742 158° South 426 490 31,300 1,333 Climbing Miami Center
Mon 07:30:00 PM 29.0878 -80.6253 159° South 431 496 32,800 1,300 Climbing Miami Center
Mon 07:31:00 PM 28.9744 -80.5717 158° South 436 502 33,900 1,100 Climbing Miami Center
Mon 07:32:00 PM 28.8531 -80.5153 158° South 436 502 35,000 550 Climbing Miami Center
Mon 07:33:00 PM 28.7500 -80.4647 157° South 436 502 35,000  Level Miami Center
Mon 07:34:00 PM 28.6342 -80.4158 160° South 444 511 35,000  Level Miami Center
Mon 07:35:00 PM 28.5131 -80.3389 151° Southeast 451 519 35,000  Level Miami Center
Mon 07:36:00 PM 28.3978 -80.2786 155° Southeast 456 525 35,000  Level Miami Center
Mon 07:37:00 PM 28.2797 -80.2350 162° South 456 525 35,000  Level Miami Center
Mon 07:38:00 PM 28.1761 -80.1989 163° South 436 502 35,000  Level Miami Center
Mon 07:39:00 PM 28.0644 -80.1533 160° South 436 502 35,000  Level Miami Center
Mon 07:40:00 PM 27.9431 -80.0839 153° Southeast 441 507 35,000 -50 Level Miami Center
Mon 07:41:00 PM 27.8378 -80.0222 153° Southeast 456 525 34,900 -1,500 Descending Miami Center
Mon 07:42:00 PM 27.7164 -79.9461 151° Southeast 461 531 32,000 -2,450 Descending Miami Center
Mon 07:43:00 PM 27.6175 -79.8825 150° Southeast 461 531 30,000 -1,950 Descending Miami Center
Mon 07:44:00 PM 27.5075 -79.8492 165° South 430 495 28,100 -2,250 Descending Miami Center
Mon 07:45:00 PM 27.3850 -79.8181 167° South 415 478 25,500 -2,050 Descending Miami Center
Mon 07:46:00 PM 27.2772 -79.7825 164° South 410 472 24,000 -950 Descending Miami Center
Mon 07:47:00 PM 27.1839 -79.7406 158° South 386 444 23,600 -1,550 Descending Miami Center
Mon 07:48:00 PM 27.0950 -79.7033 160° South 369 425 20,900 -2,550 Descending Miami Center
Mon 07:49:00 PM 26.9831 -79.6631 162° South 375 432 18,500 -1,900 Descending Miami Center
Mon 07:50:00 PM 26.8872 -79.6469 171° South 366 421 17,100 -1,650 Descending Miami Center
Mon 07:51:00 PM 26.8014 -79.6589 187° South 330 380 15,200 -2,050 Descending Miami Center
Mon 07:52:00 PM 26.7106 -79.7031 203° Southwest 338 389 13,000 -2,050 Descending Miami Center
Mon 07:53:00 PM 26.6328 -79.7317 198° South 338 389 11,100 -1,500 Descending Miami Center
Mon 07:53:52 PM 26.5589 -79.7717 206° Southwest 296 341 10,200 -1,168 Descending Miami Center
Mon 07:54:53 PM 26.4850 -79.8092 204° Southwest 270 311 8,900 -1,082 Descending Miami Center
Mon 07:55:54 PM 26.4153 -79.8469 206° Southwest 276 318 8,000 -425 Descending Miami Center
Mon 07:57:00 PM 26.3561 -79.8894 213° Southwest 269 310 8,000  Level Miami Center
Mon 07:58:00 PM 26.2900 -79.9433 216° Southwest 269 310 8,000  Level Miami Center
Mon 07:58:57 PM 26.2367 -79.9975 222° Southwest 269 310 8,000 -407 Level Miami Center
Mon 07:59:58 PM 26.1792 -80.0561 222° Southwest 261 300 7,200 -885 Descending Miami Center
Mon 08:00:59 PM 26.1586 -80.1275 252° West 243 280 6,200 -590 Descending Miami Center
Mon 08:02:00 PM 26.1406 -80.1917 253° West 204 235 6,000 -98 Descending Miami Center
Mon 08:03:01 PM 26.1453 -80.2542 275° West 199 229 6,000  Level Miami Center
Mon 08:04:03 PM 26.1522 -80.3217 277° West 208 239 6,000 49 Level Miami Center
Mon 08:05:04 PM 26.1528 -80.3864 271° West 204 235 6,100  Climbing Miami Center
Mon 08:06:05 PM 26.1511 -80.4511 268° West 205 236 6,000 -197 Descending Miami Center
Mon 08:07:06 PM 26.1475 -80.5136 266° West 202 232 5,700 -492 Descending Miami Center
Mon 08:08:07 PM 26.1339 -80.5594 252° West 161 185 5,000 -344 Descending Miami Center
Mon 08:09:08 PM 26.0883 -80.5350 154° Southeast 177 204 5,000 -197 Level Miami Center
Mon 08:10:09 PM 26.0772 -80.4792 102° East 192 221 4,600 -590 Descending Miami Center
Mon 08:11:10 PM 26.0744 -80.4233 93° East 185 213 3,800 -689 Descending Miami Center
Mon 08:12:11 PM 26.0758 -80.3656 88° East 176 203 3,200 -689 Descending Miami Center
Mon 08:13:12 PM 26.0753 -80.3078 91° East 181 208 2,400 -836 Descending Miami Center
Mon 08:14:13 PM 26.0744 -80.2547 91° East 161 185 1,500 -780 Descending Miami Center
Mon 08:15:15 PM 26.0753 -80.2131 89° East 140 161 800 -677 Descending Miami Center

Login

Don't have an account? Register now (free) for customized features, flight alerts, and more!